Time;durP1;ratioP1;P1;durP2;ratioP2;P2;SDS_P1;SDS_P2;PMS_P1;PMS_P2;Temp;Humidity;BMP_temperature;BMP_pressure;BME280_temperature;BME280_humidity;BME280_pressure;Samples;Min_cycle;Max_cycle;Signal;HPM_P1;HPM_P2
2022/01/09 00:00:38;;;;;;;1.67;1.30;;;4.90;98.20;;;;;;5006247;28;20467;-72
2022/01/09 00:03:05;;;;;;;1.60;1.30;;;4.90;98.20;;;;;;5010559;28;21014;-72
2022/01/09 00:05:32;;;;;;;1.70;1.50;;;5.00;98.20;;;;;;5030985;22;21078;-72
2022/01/09 00:07:59;;;;;;;1.60;1.30;;;5.00;98.20;;;;;;4989218;28;20492;-70
2022/01/09 00:10:29;;;;;;;1.60;1.30;;;5.00;98.20;;;;;;4982872;28;20861;-71
2022/01/09 00:12:56;;;;;;;1.67;1.30;;;5.00;98.20;;;;;;4980667;28;21154;-71
2022/01/09 00:15:22;;;;;;;1.63;1.40;;;5.00;98.20;;;;;;4974713;28;20461;-74
2022/01/09 00:17:49;;;;;;;1.67;1.30;;;5.00;98.20;;;;;;4971809;28;20485;-70
2022/01/09 00:20:16;;;;;;;1.60;1.20;;;5.00;98.20;;;;;;4969556;28;20466;-73
2022/01/09 00:22:46;;;;;;;1.60;1.30;;;5.00;98.20;;;;;;4975067;28;20492;-72
2022/01/09 00:25:15;;;;;;;1.60;1.30;;;5.00;98.20;;;;;;4971389;28;20517;-73
2022/01/09 00:27:43;;;;;;;1.70;1.40;;;5.00;98.20;;;;;;4979393;28;20484;-71
2022/01/09 00:30:13;;;;;;;1.70;1.40;;;5.00;98.20;;;;;;4971892;28;20461;-73
2022/01/09 00:32:40;;;;;;;1.70;1.50;;;5.00;98.20;;;;;;4972321;28;20623;-72
2022/01/09 00:35:08;;;;;;;1.63;1.30;;;5.00;98.20;;;;;;4971221;28;21086;-71
2022/01/09 00:37:35;;;;;;;1.70;1.40;;;5.00;98.20;;;;;;4974387;28;20892;-72
2022/01/09 00:40:02;;;;;;;1.60;1.30;;;5.00;98.20;;;;;;4970576;28;20612;-72
2022/01/09 00:42:29;;;;;;;1.60;1.30;;;5.00;98.20;;;;;;4970197;28;20485;-73
2022/01/09 00:44:57;;;;;;;1.60;1.33;;;5.10;98.20;;;;;;4970766;28;20458;-71
2022/01/09 00:47:24;;;;;;;1.70;1.50;;;5.00;98.20;;;;;;4972671;28;20548;-71
2022/01/09 00:49:51;;;;;;;1.60;1.30;;;5.10;98.20;;;;;;4970206;28;20467;-71
2022/01/09 00:52:18;;;;;;;1.70;1.50;;;5.10;98.20;;;;;;4969626;28;20963;-71
2022/01/09 00:54:45;;;;;;;1.70;1.50;;;5.10;98.20;;;;;;4973685;28;20552;-71
2022/01/09 00:57:12;;;;;;;1.60;1.30;;;5.10;98.20;;;;;;4980615;28;20499;-72
2022/01/09 00:59:38;;;;;;;1.60;1.30;;;5.20;98.20;;;;;;4972743;28;20466;-71
2022/01/09 01:02:07;;;;;;;1.70;1.50;;;5.20;98.20;;;;;;4971192;28;20495;-72
2022/01/09 01:04:33;;;;;;;1.60;1.30;;;5.20;98.20;;;;;;4973104;28;20824;-71
2022/01/09 01:07:00;;;;;;;1.60;1.30;;;5.20;98.20;;;;;;4969641;28;20496;-71
2022/01/09 01:09:30;;;;;;;1.70;1.40;;;5.20;98.20;;;;;;4976026;28;20841;-72
2022/01/09 01:11:57;;;;;;;1.70;1.40;;;5.20;98.20;;;;;;4970404;28;20484;-72
2022/01/09 01:14:26;;;;;;;1.60;1.40;;;5.20;98.20;;;;;;4973516;28;20490;-72
2022/01/09 01:16:53;;;;;;;1.60;1.30;;;5.10;98.20;;;;;;4967767;28;20740;-72
2022/01/09 01:19:22;;;;;;;1.63;1.33;;;5.10;98.20;;;;;;4974398;28;20462;-73
2022/01/09 01:21:49;;;;;;;1.70;1.50;;;5.10;98.20;;;;;;4965043;28;20491;-73
2022/01/09 01:24:17;;;;;;;1.60;1.30;;;5.00;98.20;;;;;;4976566;28;20485;-72
2022/01/09 01:26:44;;;;;;;1.70;1.50;;;5.00;98.20;;;;;;4967805;28;20493;-72
2022/01/09 01:29:11;;;;;;;1.67;1.30;;;5.00;98.20;;;;;;4985621;28;20490;-72
2022/01/09 01:31:38;;;;;;;1.60;1.30;;;5.00;98.20;;;;;;4965215;28;20669;-73
2022/01/09 01:34:05;;;;;;;1.70;1.50;;;5.00;98.20;;;;;;4975910;28;20489;-72
2022/01/09 01:36:33;;;;;;;1.70;1.53;;;5.00;98.20;;;;;;4964443;28;20488;-73
2022/01/09 01:38:59;;;;;;;1.70;1.60;;;5.00;98.20;;;;;;4976525;28;20820;-72
2022/01/09 01:41:26;;;;;;;1.67;1.37;;;5.00;98.20;;;;;;4965179;28;20783;-72
2022/01/09 01:43:53;;;;;;;1.67;1.40;;;5.00;98.20;;;;;;4980010;28;20831;-72
2022/01/09 01:46:20;;;;;;;1.63;1.40;;;5.00;98.20;;;;;;4964690;28;20495;-72
2022/01/09 01:48:47;;;;;;;1.70;1.50;;;5.00;98.20;;;;;;4978184;28;20950;-72
2022/01/09 01:51:13;;;;;;;1.60;1.40;;;5.10;98.20;;;;;;4967705;28;20871;-72
2022/01/09 01:53:41;;;;;;;1.67;1.40;;;5.10;98.20;;;;;;4980167;28;20578;-72
2022/01/09 01:56:12;;;;;;;1.70;1.43;;;5.10;98.20;;;;;;4964852;28;20486;-72
2022/01/09 01:58:39;;;;;;;1.67;1.40;;;5.10;98.20;;;;;;4983010;28;20466;-72
2022/01/09 02:01:05;;;;;;;1.67;1.37;;;5.20;98.20;;;;;;4963739;28;20840;-72
2022/01/09 02:03:32;;;;;;;1.63;1.40;;;5.20;98.20;;;;;;4981621;28;20470;-72
2022/01/09 02:05:59;;;;;;;1.63;1.30;;;5.20;98.20;;;;;;4959884;28;20906;-71
2022/01/09 02:08:26;;;;;;;1.60;1.30;;;5.30;98.20;;;;;;4983599;28;20979;-73
2022/01/09 02:10:56;;;;;;;1.60;1.30;;;5.40;98.20;;;;;;4961036;28;20966;-72
2022/01/09 02:13:23;;;;;;;1.60;1.30;;;5.50;98.20;;;;;;4985072;28;21052;-73
2022/01/09 02:15:50;;;;;;;1.70;1.40;;;5.50;98.20;;;;;;4958834;28;20485;-73
2022/01/09 02:18:19;;;;;;;1.63;1.30;;;5.60;98.20;;;;;;4983087;28;20468;-72
2022/01/09 02:20:48;;;;;;;1.60;1.30;;;5.60;98.20;;;;;;4968438;28;20477;-72
2022/01/09 02:23:17;;;;;;;1.60;1.30;;;5.60;98.20;;;;;;4972945;28;20556;-74
2022/01/09 02:25:44;;;;;;;1.70;1.40;;;5.60;98.20;;;;;;4966599;28;20482;-72
2022/01/09 02:28:13;;;;;;;1.60;1.30;;;5.60;98.20;;;;;;4980246;28;21269;-71
2022/01/09 02:30:41;;;;;;;1.67;1.40;;;5.50;98.20;;;;;;4965248;28;20564;-73
2022/01/09 02:33:09;;;;;;;1.60;1.30;;;5.50;98.20;;;;;;4953370;28;20486;-73
2022/01/09 02:35:37;;;;;;;1.60;1.30;;;5.40;98.20;;;;;;4963844;28;20506;-73
2022/01/09 02:38:06;;;;;;;1.70;1.43;;;5.40;98.20;;;;;;4971969;28;20481;-74
2022/01/09 02:40:33;;;;;;;1.60;1.30;;;5.30;98.20;;;;;;4964319;28;20470;-73
2022/01/09 02:43:01;;;;;;;1.70;1.40;;;5.20;98.20;;;;;;4973307;28;20484;-72
2022/01/09 02:45:29;;;;;;;1.63;1.33;;;5.20;98.20;;;;;;4968054;28;20473;-74
2022/01/09 02:47:58;;;;;;;1.60;1.30;;;5.20;98.20;;;;;;4971605;28;20484;-73
2022/01/09 02:50:36;;;;;;;1.60;1.30;;;5.10;98.20;;;;;;4968445;28;20467;-73
2022/01/09 02:53:15;;;;;;;1.70;1.40;;;5.10;98.20;;;;;;4976070;28;20491;-72
2022/01/09 02:55:42;;;;;;;1.60;1.30;;;5.10;98.20;;;;;;4969555;28;20576;-72
2022/01/09 02:58:12;;;;;;;1.60;1.40;;;5.10;98.20;;;;;;4978505;28;20861;-73
2022/01/09 03:00:42;;;;;;;1.67;1.30;;;5.10;98.20;;;;;;4965200;28;20481;-73
2022/01/09 03:03:09;;;;;;;1.60;1.30;;;5.10;98.20;;;;;;4974429;28;20994;-72
2022/01/09 03:05:36;;;;;;;1.60;1.30;;;5.10;98.20;;;;;;4967671;28;20461;-73
2022/01/09 03:08:03;;;;;;;1.60;1.30;;;5.20;98.20;;;;;;4972826;28;20480;-73
2022/01/09 03:10:31;;;;;;;1.67;1.40;;;5.20;98.20;;;;;;4966237;28;20477;-73
2022/01/09 03:12:59;;;;;;;1.60;1.30;;;5.20;98.20;;;;;;4976057;28;20512;-72
2022/01/09 03:15:26;;;;;;;1.70;1.40;;;5.20;98.20;;;;;;4964549;28;20521;-72
2022/01/09 03:17:53;;;;;;;1.60;1.30;;;5.20;98.20;;;;;;4974681;28;20520;-73
2022/01/09 03:20:22;;;;;;;1.60;1.30;;;5.20;98.20;;;;;;4968725;28;20493;-73
2022/01/09 03:22:49;;;;;;;1.63;1.30;;;5.20;98.20;;;;;;4975474;28;21016;-72
2022/01/09 03:25:17;;;;;;;1.70;1.40;;;5.30;98.20;;;;;;4970067;28;20496;-72
2022/01/09 03:27:48;;;;;;;1.60;1.40;;;5.30;98.20;;;;;;4977056;28;20780;-72
2022/01/09 03:30:15;;;;;;;1.60;1.30;;;5.30;98.20;;;;;;4966718;28;20537;-72
2022/01/09 03:32:43;;;;;;;1.60;1.30;;;5.30;98.20;;;;;;4973873;28;20865;-72
2022/01/09 03:35:13;;;;;;;1.63;1.40;;;5.30;98.20;;;;;;4969540;28;20497;-71
2022/01/09 03:37:40;;;;;;;1.67;1.30;;;5.30;98.20;;;;;;4969488;28;20966;-73
2022/01/09 03:40:10;;;;;;;1.60;1.40;;;5.30;98.20;;;;;;4968876;28;20466;-72
2022/01/09 03:42:37;;;;;;;1.60;1.30;;;5.30;98.20;;;;;;4971484;28;20485;-72
2022/01/09 03:45:08;;;;;;;1.60;1.30;;;5.40;98.20;;;;;;4969783;28;20973;-72
2022/01/09 03:47:36;;;;;;;1.80;1.70;;;5.40;98.20;;;;;;4976438;28;20481;-72
2022/01/09 03:50:04;;;;;;;1.60;1.30;;;5.40;98.20;;;;;;4976019;28;20469;-73
2022/01/09 03:52:31;;;;;;;1.60;1.30;;;5.40;98.20;;;;;;4978083;28;20575;-73
2022/01/09 03:54:58;;;;;;;1.60;1.30;;;5.40;98.20;;;;;;4972767;28;20489;-73
2022/01/09 03:57:25;;;;;;;1.67;1.37;;;5.40;98.20;;;;;;4981627;28;20576;-74
2022/01/09 03:59:52;;;;;;;1.63;1.30;;;5.40;98.20;;;;;;4975916;28;20499;-73
2022/01/09 04:02:20;;;;;;;1.70;1.53;;;5.40;98.20;;;;;;4968184;28;20594;-73
2022/01/09 04:04:46;;;;;;;1.70;1.30;;;5.40;98.20;;;;;;4974708;28;20535;-73
2022/01/09 04:07:15;;;;;;;1.60;1.30;;;5.40;98.20;;;;;;4974712;28;20512;-73
2022/01/09 04:09:44;;;;;;;1.60;1.23;;;5.40;98.20;;;;;;4975591;28;20741;-72
2022/01/09 04:12:17;;;;;;;1.67;1.40;;;5.40;98.20;;;;;;4973728;28;20489;-72
2022/01/09 04:14:45;;;;;;;1.60;1.20;;;5.40;98.20;;;;;;4971684;28;20522;-72
2022/01/09 04:17:18;;;;;;;1.63;1.30;;;5.40;98.20;;;;;;4976793;28;20499;-72
2022/01/09 04:19:46;;;;;;;1.67;1.40;;;5.50;98.20;;;;;;4975322;28;20972;-73
2022/01/09 04:22:13;;;;;;;1.60;1.30;;;5.50;98.20;;;;;;4973411;28;20996;-72
2022/01/09 04:24:39;;;;;;;1.63;1.30;;;5.50;98.20;;;;;;4974690;28;20621;-72
2022/01/09 04:27:07;;;;;;;1.67;1.27;;;5.50;98.20;;;;;;4976091;28;20493;-72
2022/01/09 04:29:34;;;;;;;1.70;1.60;;;5.50;98.20;;;;;;4976155;28;20466;-73
2022/01/09 04:32:01;;;;;;;1.67;1.37;;;5.60;98.20;;;;;;4968856;28;20582;-72
2022/01/09 04:34:28;;;;;;;1.70;1.40;;;5.60;98.20;;;;;;4987073;28;20485;-72
2022/01/09 04:36:59;;;;;;;1.60;1.30;;;5.60;98.20;;;;;;4965939;28;20489;-72
2022/01/09 04:39:26;;;;;;;1.63;1.30;;;5.60;98.20;;;;;;4977008;28;20477;-72
2022/01/09 04:41:53;;;;;;;1.67;1.30;;;5.60;98.20;;;;;;4968400;28;20989;-72
2022/01/09 04:44:20;;;;;;;1.83;1.67;;;5.60;98.20;;;;;;4977438;28;20813;-71
2022/01/09 04:46:54;;;;;;;1.70;1.50;;;5.70;98.20;;;;;;4974037;28;20496;-73
2022/01/09 04:49:24;;;;;;;1.60;1.30;;;5.70;98.20;;;;;;4981655;28;20458;-72
2022/01/09 04:51:51;;;;;;;1.70;1.40;;;5.70;98.20;;;;;;4974883;28;21066;-72
2022/01/09 04:54:19;;;;;;;1.70;1.30;;;5.70;98.20;;;;;;4977372;28;20570;-72
2022/01/09 04:56:46;;;;;;;1.70;1.60;;;5.70;98.20;;;;;;4969562;28;21011;-73
2022/01/09 04:59:12;;;;;;;1.67;1.30;;;5.70;98.20;;;;;;4983596;28;20567;-72
2022/01/09 05:01:39;;;;;;;1.60;1.30;;;5.70;98.20;;;;;;4971403;28;20484;-72
2022/01/09 05:04:06;;;;;;;1.63;1.20;;;5.70;98.20;;;;;;4979067;28;20465;-72
2022/01/09 05:06:33;;;;;;;1.67;1.30;;;5.70;98.20;;;;;;4970196;28;20931;-72
2022/01/09 05:08:59;;;;;;;1.63;1.30;;;5.60;98.20;;;;;;4978851;28;20468;-72
2022/01/09 05:11:27;;;;;;;1.67;1.30;;;5.60;98.20;;;;;;4977645;28;20491;-72
2022/01/09 05:13:54;;;;;;;1.70;1.40;;;5.60;98.20;;;;;;4982384;28;20473;-72
2022/01/09 05:16:21;;;;;;;1.60;1.30;;;5.60;98.20;;;;;;4972567;28;21020;-72
2022/01/09 05:18:53;;;;;;;1.60;1.30;;;5.60;98.20;;;;;;4971159;28;20466;-72
2022/01/09 05:21:20;;;;;;;1.70;1.40;;;5.60;98.20;;;;;;4967545;28;20487;-72
2022/01/09 05:23:47;;;;;;;1.67;1.30;;;5.60;98.20;;;;;;4981672;28;20539;-72
2022/01/09 05:26:14;;;;;;;1.70;1.40;;;5.60;98.20;;;;;;4967262;28;20472;-72
2022/01/09 05:28:42;;;;;;;1.67;1.40;;;5.50;98.20;;;;;;4988368;28;20457;-73
2022/01/09 05:31:09;;;;;;;1.67;1.40;;;5.50;98.20;;;;;;4965012;28;20745;-73
2022/01/09 05:33:36;;;;;;;1.70;1.30;;;5.50;98.20;;;;;;4985287;28;20472;-72
2022/01/09 05:36:03;;;;;;;1.67;1.40;;;5.50;98.20;;;;;;4962105;28;20501;-72
2022/01/09 05:38:30;;;;;;;1.70;1.40;;;5.50;98.20;;;;;;4982801;28;20872;-73
2022/01/09 05:40:57;;;;;;;1.70;1.40;;;5.50;98.20;;;;;;4965816;28;20481;-73
2022/01/09 05:43:23;;;;;;;1.60;1.30;;;5.50;98.20;;;;;;4970766;28;20465;-72
2022/01/09 05:45:52;;;;;;;1.63;1.30;;;5.50;98.20;;;;;;4961670;28;21042;-72
2022/01/09 05:48:18;;;;;;;1.60;1.30;;;5.50;98.20;;;;;;4987014;28;20946;-73
2022/01/09 05:50:45;;;;;;;1.70;1.40;;;5.50;98.20;;;;;;4970745;28;20466;-72
2022/01/09 05:53:12;;;;;;;1.63;1.30;;;5.50;98.20;;;;;;4979956;28;20551;-72
2022/01/09 05:55:39;;;;;;;1.67;1.37;;;5.50;98.20;;;;;;4973614;28;20496;-72
2022/01/09 05:58:06;;;;;;;1.60;1.30;;;5.50;98.20;;;;;;4979693;28;20744;-72
2022/01/09 06:00:32;;;;;;;1.70;1.40;;;5.50;98.20;;;;;;4968582;28;20458;-73
2022/01/09 06:03:00;;;;;;;1.60;1.40;;;5.40;98.20;;;;;;4974202;28;20488;-74
2022/01/09 06:05:27;;;;;;;1.60;1.30;;;5.50;98.20;;;;;;4968861;28;20635;-73
2022/01/09 06:07:54;;;;;;;1.60;1.30;;;5.40;98.20;;;;;;4994944;23;20472;-74
2022/01/09 06:10:21;;;;;;;1.67;1.33;;;5.50;98.20;;;;;;5009871;28;20958;-74
2022/01/09 06:12:48;;;;;;;1.63;1.30;;;5.40;98.20;;;;;;5001796;28;20972;-73
2022/01/09 06:15:15;;;;;;;1.70;1.40;;;5.40;98.20;;;;;;5009134;28;20495;-75
2022/01/09 06:17:43;;;;;;;1.63;1.20;;;5.40;98.20;;;;;;5014143;28;20478;-76
2022/01/09 06:20:13;;;;;;;1.60;1.30;;;5.40;98.20;;;;;;4989859;28;20464;-74
2022/01/09 06:22:41;;;;;;;1.70;1.30;;;5.40;98.20;;;;;;4999426;28;20567;-75
2022/01/09 06:25:09;;;;;;;1.70;1.40;;;5.40;98.20;;;;;;4987939;28;20460;-73
2022/01/09 06:27:36;;;;;;;1.70;1.57;;;5.40;98.20;;;;;;5003872;28;20490;-76
2022/01/09 06:30:03;;;;;;;1.60;1.30;;;5.40;98.20;;;;;;4990717;28;20468;-76
2022/01/09 06:32:31;;;;;;;1.70;1.30;;;5.40;98.20;;;;;;4993806;28;20480;-75
2022/01/09 06:34:57;;;;;;;1.63;1.37;;;5.40;98.20;;;;;;4989566;28;20513;-75
2022/01/09 06:37:26;;;;;;;1.67;1.40;;;5.30;98.20;;;;;;4989836;28;20484;-74
2022/01/09 06:39:52;;;;;;;1.60;1.27;;;5.30;98.20;;;;;;4989144;28;20492;-75
2022/01/09 06:42:19;;;;;;;1.60;1.30;;;5.30;98.20;;;;;;4992416;28;20794;-77
2022/01/09 06:44:46;;;;;;;1.70;1.50;;;5.30;98.20;;;;;;4992628;28;20457;-77
2022/01/09 06:47:13;;;;;;;1.67;1.30;;;5.30;98.20;;;;;;4988914;28;20480;-74
2022/01/09 06:49:40;;;;;;;1.70;1.40;;;5.30;98.20;;;;;;4996947;28;20493;-75
2022/01/09 06:52:07;;;;;;;1.63;1.40;;;5.30;98.20;;;;;;4988081;28;20490;-75
2022/01/09 06:54:35;;;;;;;1.67;1.40;;;5.30;98.20;;;;;;4992930;28;20475;-74
2022/01/09 06:57:02;;;;;;;1.67;1.37;;;5.30;98.20;;;;;;4999888;28;20509;-75
2022/01/09 06:59:29;;;;;;;1.63;1.40;;;5.30;98.20;;;;;;5000433;28;20481;-73
2022/01/09 07:01:56;;;;;;;1.60;1.20;;;5.30;98.20;;;;;;4987045;28;20754;-74
2022/01/09 07:04:23;;;;;;;1.60;1.30;;;5.30;98.20;;;;;;4994167;28;20476;-73
2022/01/09 07:06:50;;;;;;;1.63;1.33;;;5.30;98.20;;;;;;4982331;28;20554;-74
2022/01/09 07:09:17;;;;;;;1.70;1.40;;;5.30;98.20;;;;;;4985719;28;20511;-74
2022/01/09 07:11:45;;;;;;;1.60;1.30;;;5.30;98.20;;;;;;4974913;28;20460;-72
2022/01/09 07:14:14;;;;;;;1.70;1.40;;;5.30;98.20;;;;;;4984573;28;20544;-72
2022/01/09 07:16:41;;;;;;;1.63;1.30;;;5.30;98.20;;;;;;4981785;28;20495;-73
2022/01/09 07:19:07;;;;;;;1.63;1.33;;;5.30;98.20;;;;;;4996318;28;20485;-72
2022/01/09 07:21:34;;;;;;;1.60;1.30;;;5.30;98.20;;;;;;4987354;28;21002;-73
2022/01/09 07:24:01;;;;;;;1.67;1.30;;;5.30;98.20;;;;;;5000423;28;20465;-73
2022/01/09 07:26:28;;;;;;;1.70;1.50;;;5.30;98.20;;;;;;4990943;28;20634;-72
2022/01/09 07:28:56;;;;;;;1.67;1.30;;;5.30;98.20;;;;;;5006624;28;20996;-73
2022/01/09 07:31:23;;;;;;;1.63;1.30;;;5.30;98.20;;;;;;4985340;28;20476;-73
2022/01/09 07:33:49;;;;;;;1.70;1.37;;;5.30;98.20;;;;;;5002958;28;20472;-73
2022/01/09 07:36:18;;;;;;;1.60;1.30;;;5.30;98.20;;;;;;4982621;28;20505;-73
2022/01/09 07:38:45;;;;;;;1.63;1.33;;;5.30;98.20;;;;;;5005254;28;20512;-73
2022/01/09 07:41:14;;;;;;;1.70;1.40;;;5.30;98.20;;;;;;4984178;28;20472;-72
2022/01/09 07:43:41;;;;;;;1.70;1.40;;;5.30;98.20;;;;;;5003048;28;20468;-72
2022/01/09 07:46:09;;;;;;;1.63;1.40;;;5.30;98.20;;;;;;4982697;28;21152;-72
2022/01/09 07:48:36;;;;;;;1.67;1.33;;;5.30;98.20;;;;;;5003771;28;20496;-72
2022/01/09 07:51:03;;;;;;;1.60;1.30;;;5.30;98.20;;;;;;4982011;28;20949;-72
2022/01/09 07:53:29;;;;;;;1.70;1.30;;;5.30;98.20;;;;;;5004100;28;20472;-72
2022/01/09 07:55:56;;;;;;;1.70;1.50;;;5.30;98.20;;;;;;4982660;28;20496;-72
2022/01/09 07:58:23;;;;;;;1.60;1.30;;;5.30;98.20;;;;;;5009485;28;20856;-72
2022/01/09 08:00:50;;;;;;;1.60;1.30;;;5.30;98.20;;;;;;4984723;28;20469;-73
2022/01/09 08:03:18;;;;;;;1.63;1.30;;;5.30;98.20;;;;;;5019895;28;20465;-72
2022/01/09 08:05:44;;;;;;;1.67;1.30;;;5.30;98.20;;;;;;4987445;28;20460;-70
2022/01/09 08:08:11;;;;;;;1.70;1.30;;;5.30;98.20;;;;;;4985267;28;20507;-71
2022/01/09 08:10:38;;;;;;;1.70;1.43;;;5.30;98.20;;;;;;4991579;28;20475;-70
2022/01/09 08:13:05;;;;;;;1.67;1.40;;;5.30;98.20;;;;;;5006041;28;21084;-72
2022/01/09 08:15:32;;;;;;;1.67;1.30;;;5.20;98.20;;;;;;4990577;28;20500;-70
2022/01/09 08:17:58;;;;;;;1.60;1.30;;;5.20;98.20;;;;;;4995606;28;21020;-71
2022/01/09 08:20:27;;;;;;;1.63;1.37;;;5.20;98.20;;;;;;4989806;28;20472;-71
2022/01/09 08:22:53;;;;;;;1.60;1.30;;;5.10;98.20;;;;;;4996456;28;20491;-71
2022/01/09 08:25:20;;;;;;;1.60;1.30;;;5.10;98.20;;;;;;4987467;28;20948;-71
2022/01/09 08:27:48;;;;;;;1.67;1.40;;;5.10;98.20;;;;;;4999656;28;20488;-72
2022/01/09 08:30:18;;;;;;;1.70;1.40;;;5.10;98.20;;;;;;4991630;28;20468;-72
2022/01/09 08:32:45;;;;;;;1.60;1.30;;;5.10;98.20;;;;;;5002849;28;20561;-72
2022/01/09 08:35:12;;;;;;;1.67;1.40;;;5.10;98.20;;;;;;4989083;28;22074;-72
2022/01/09 08:37:42;;;;;;;1.70;1.40;;;5.10;98.20;;;;;;4995089;28;20572;-72
2022/01/09 08:40:10;;;;;;;1.63;1.30;;;5.10;98.20;;;;;;4991233;28;20475;-72
2022/01/09 08:42:37;;;;;;;1.60;1.30;;;5.10;98.20;;;;;;4986115;28;20970;-72
2022/01/09 08:45:04;;;;;;;1.60;1.30;;;5.20;98.20;;;;;;4987705;28;20476;-72
2022/01/09 08:47:31;;;;;;;1.70;1.40;;;5.20;98.20;;;;;;4986157;28;20471;-73
2022/01/09 08:49:58;;;;;;;1.70;1.43;;;5.20;98.20;;;;;;4987142;28;20466;-72
2022/01/09 08:52:25;;;;;;;1.63;1.30;;;5.20;98.20;;;;;;4981890;28;20535;-73
2022/01/09 08:54:53;;;;;;;1.70;1.40;;;5.20;98.20;;;;;;4988812;28;20754;-73
2022/01/09 08:57:19;;;;;;;1.60;1.30;;;5.30;98.20;;;;;;4981945;28;20480;-73
2022/01/09 08:59:46;;;;;;;1.60;1.30;;;5.30;98.20;;;;;;4991844;28;20491;-73
2022/01/09 09:02:14;;;;;;;1.70;1.40;;;5.30;98.20;;;;;;4986333;28;20893;-73
2022/01/09 09:04:40;;;;;;;1.60;1.30;;;5.30;98.20;;;;;;4992171;28;20868;-72
2022/01/09 09:07:07;;;;;;;1.60;1.40;;;5.30;98.20;;;;;;4988068;28;20498;-73
2022/01/09 09:09:34;;;;;;;1.60;1.30;;;5.30;98.20;;;;;;4989107;28;20578;-73
2022/01/09 09:12:02;;;;;;;1.70;1.40;;;5.30;98.20;;;;;;4980464;28;21017;-72
2022/01/09 09:14:29;;;;;;;1.67;1.30;;;5.30;98.20;;;;;;4990383;28;20480;-72
2022/01/09 09:16:56;;;;;;;1.67;1.30;;;5.30;98.20;;;;;;4974391;28;20511;-73
2022/01/09 09:19:23;;;;;;;1.60;1.30;;;5.30;98.20;;;;;;4983947;28;20545;-72
2022/01/09 09:21:50;;;;;;;1.60;1.30;;;5.40;98.20;;;;;;4976726;28;20521;-73
2022/01/09 09:24:17;;;;;;;1.67;1.37;;;5.40;98.20;;;;;;5000937;28;20471;-72
2022/01/09 09:26:44;;;;;;;1.70;1.50;;;5.40;98.20;;;;;;4980792;28;20559;-72
2022/01/09 09:29:12;;;;;;;1.67;1.30;;;5.40;98.20;;;;;;4988362;28;20851;-72
2022/01/09 09:31:39;;;;;;;1.63;1.30;;;5.40;98.20;;;;;;4979407;28;20489;-72
2022/01/09 09:34:08;;;;;;;1.70;1.40;;;5.40;98.20;;;;;;4989052;28;20469;-72
2022/01/09 09:36:35;;;;;;;1.70;1.40;;;5.50;98.20;;;;;;4975733;28;21055;-73
2022/01/09 09:39:02;;;;;;;1.70;1.40;;;5.50;98.20;;;;;;4986757;28;20495;-73
2022/01/09 09:41:29;;;;;;;1.60;1.33;;;5.50;98.20;;;;;;4977275;28;20487;-73
2022/01/09 09:43:56;;;;;;;1.67;1.37;;;5.50;98.20;;;;;;4996184;28;20476;-73
2022/01/09 09:46:25;;;;;;;1.70;1.43;;;5.60;98.20;;;;;;4977588;28;20806;-74
2022/01/09 09:48:53;;;;;;;1.63;1.30;;;5.60;98.20;;;;;;4988101;28;20564;-73
2022/01/09 09:51:24;;;;;;;1.70;1.37;;;5.60;98.20;;;;;;4974893;28;20472;-73
2022/01/09 09:53:50;;;;;;;1.60;1.30;;;5.60;98.20;;;;;;4986453;28;20465;-72
2022/01/09 09:56:17;;;;;;;1.70;1.40;;;5.60;98.20;;;;;;4982884;28;20513;-73
2022/01/09 09:58:47;;;;;;;1.60;1.40;;;5.70;98.20;;;;;;5002632;28;20976;-74
2022/01/09 10:01:24;;;;;;;1.70;1.40;;;5.70;98.20;;;;;;4970880;28;20559;-73
2022/01/09 10:03:56;;;;;;;1.70;1.60;;;5.70;98.20;;;;;;4990902;28;20507;-72
2022/01/09 10:06:43;;;;;;;1.70;1.50;;;5.80;98.20;;;;;;4980915;28;20480;-72
2022/01/09 10:09:12;;;;;;;1.63;1.40;;;5.80;98.20;;;;;;4991066;28;20484;-72
2022/01/09 10:11:48;;;;;;;1.60;1.30;;;5.80;98.20;;;;;;4978982;28;20484;-72
2022/01/09 10:14:17;;;;;;;1.60;1.20;;;5.80;98.20;;;;;;4990109;28;20461;-73
2022/01/09 10:17:09;;;;;;;1.60;1.20;;;5.80;98.20;;;;;;4981997;28;20483;-73
2022/01/09 10:19:42;;;;;;;1.63;1.30;;;5.80;98.20;;;;;;4986220;28;20950;-73
2022/01/09 10:22:32;;;;;;;1.60;1.20;;;5.80;98.20;;;;;;4975521;28;21107;-73
2022/01/09 10:25:27;;;;;;;1.63;1.30;;;5.80;98.20;;;;;;4984276;28;20688;-73
2022/01/09 10:28:01;;;;;;;1.70;1.50;;;5.80;98.20;;;;;;4981695;28;21163;-73
2022/01/09 10:30:30;;;;;;;1.70;1.40;;;5.80;98.20;;;;;;4983744;28;20473;-73
2022/01/09 10:32:59;;;;;;;1.67;1.40;;;5.80;98.20;;;;;;4984878;28;20803;-71
2022/01/09 10:35:28;;;;;;;1.60;1.30;;;5.80;98.20;;;;;;4983311;28;20492;-70
2022/01/09 10:38:11;;;;;;;1.70;1.50;;;5.80;98.20;;;;;;4988114;28;20488;-71
2022/01/09 10:40:38;;;;;;;1.70;1.30;;;5.90;98.20;;;;;;4983589;28;21006;-74
2022/01/09 10:43:08;;;;;;;1.93;1.73;;;5.80;98.20;;;;;;4976408;28;20496;-71
2022/01/09 10:45:39;;;;;;;1.70;1.30;;;5.90;98.20;;;;;;4983483;28;20496;-71
2022/01/09 10:48:09;;;;;;;1.70;1.40;;;5.90;98.20;;;;;;4989952;28;21003;-71
2022/01/09 10:50:39;;;;;;;1.67;1.30;;;6.00;98.20;;;;;;4984646;28;20965;-70
2022/01/09 10:53:25;;;;;;;1.60;1.30;;;6.00;98.20;;;;;;4989494;28;20491;-70
2022/01/09 10:56:10;;;;;;;1.70;1.40;;;6.10;98.20;;;;;;4973559;28;20460;-71
2022/01/09 10:58:39;;;;;;;1.70;1.40;;;6.10;98.20;;;;;;4991017;28;20492;-71
2022/01/09 11:01:18;;;;;;;1.63;1.27;;;6.10;98.20;;;;;;4979219;28;20537;-71
2022/01/09 11:03:48;;;;;;;1.60;1.30;;;6.10;98.20;;;;;;4989932;28;20583;-71
2022/01/09 11:06:15;;;;;;;1.60;1.30;;;6.10;98.20;;;;;;4977539;28;20555;-70
2022/01/09 11:08:43;;;;;;;1.60;1.30;;;6.10;98.20;;;;;;4986059;28;20523;-73
2022/01/09 11:11:19;;;;;;;1.60;1.30;;;6.10;98.20;;;;;;4973823;28;21039;-74
2022/01/09 11:13:47;;;;;;;1.60;1.30;;;6.20;98.20;;;;;;4994562;28;20460;-72
2022/01/09 11:16:34;;;;;;;1.60;1.30;;;6.20;98.20;;;;;;4981567;28;21062;-73
2022/01/09 11:19:08;;;;;;;1.67;1.30;;;6.20;98.20;;;;;;4993831;28;21035;-74
2022/01/09 11:21:36;;;;;;;1.63;1.30;;;6.20;98.20;;;;;;4982511;28;20538;-75
2022/01/09 11:24:35;;;;;;;1.70;1.40;;;6.20;98.20;;;;;;4996674;28;20483;-75
2022/01/09 11:27:10;;;;;;;1.63;1.30;;;6.20;98.20;;;;;;4981985;28;20679;-73
2022/01/09 11:29:45;;;;;;;1.70;1.30;;;6.20;98.20;;;;;;4985585;28;20495;-74
2022/01/09 11:32:23;;;;;;;1.60;1.30;;;6.20;98.20;;;;;;4988186;28;20555;-73
2022/01/09 11:35:01;;;;;;;1.60;1.27;;;6.30;98.20;;;;;;4990271;28;20464;-74
2022/01/09 11:37:45;;;;;;;1.70;1.43;;;6.30;98.20;;;;;;4988458;28;20491;-75
2022/01/09 11:40:23;;;;;;;1.63;1.30;;;6.30;98.20;;;;;;4986170;28;20961;-75
2022/01/09 11:43:06;;;;;;;1.70;1.40;;;6.40;98.20;;;;;;4992907;28;20479;-72
2022/01/09 11:45:47;;;;;;;2.43;2.23;;;6.40;98.20;;;;;;4985889;28;20885;-74
2022/01/09 11:48:16;;;;;;;1.60;1.30;;;6.50;98.20;;;;;;4976834;28;20578;-74
2022/01/09 11:51:18;;;;;;;1.70;1.40;;;6.60;98.20;;;;;;4990607;28;20980;-74
2022/01/09 11:54:17;;;;;;;1.70;1.30;;;6.70;98.20;;;;;;4914031;29;20940;-74
2022/01/09 11:56:52;;;;;;;1.63;1.20;;;6.80;98.20;;;;;;4929741;28;20491;-74
2022/01/09 11:59:21;;;;;;;1.70;1.30;;;6.90;98.20;;;;;;4974827;28;20488;-73
2022/01/09 12:01:49;;;;;;;1.70;1.40;;;6.90;98.20;;;;;;4981342;28;20496;-73
2022/01/09 12:04:54;;;;;;;1.60;1.20;;;7.00;98.20;;;;;;4988522;28;20466;-74
2022/01/09 12:08:04;;;;;;;1.70;1.33;;;7.00;98.20;;;;;;4984556;28;20661;-74
2022/01/09 12:10:35;;;;;;;1.67;1.30;;;7.00;98.20;;;;;;4982900;28;20905;-74
2022/01/09 12:13:04;;;;;;;1.63;1.30;;;7.10;98.20;;;;;;4986859;28;21031;-73
2022/01/09 12:15:39;;;;;;;1.70;1.30;;;7.20;98.20;;;;;;4986327;28;20465;-71
2022/01/09 12:18:07;;;;;;;1.63;1.30;;;7.30;98.20;;;;;;4989539;28;20479;-72
2022/01/09 12:20:40;;;;;;;1.70;1.30;;;7.40;98.20;;;;;;4985349;28;21191;-70
2022/01/09 12:23:08;;;;;;;1.63;1.20;;;7.50;98.20;;;;;;4990257;28;20488;-71
2022/01/09 12:25:44;;;;;;;1.67;1.20;;;7.50;98.20;;;;;;4986588;28;20472;-72
2022/01/09 12:28:14;;;;;;;1.67;1.33;;;7.60;98.20;;;;;;4977689;28;20488;-71
2022/01/09 12:30:48;;;;;;;1.63;1.20;;;7.60;98.20;;;;;;4982025;28;20465;-71
2022/01/09 12:33:36;;;;;;;1.70;1.40;;;7.60;98.20;;;;;;4970965;28;20884;-70
2022/01/09 12:36:05;;;;;;;1.63;1.20;;;7.70;98.20;;;;;;4974945;28;20949;-70
2022/01/09 12:38:34;;;;;;;1.60;1.20;;;7.70;98.20;;;;;;4996846;28;20481;-71
2022/01/09 12:41:04;;;;;;;1.60;1.23;;;7.70;98.20;;;;;;4982196;28;20473;-71
2022/01/09 12:43:33;;;;;;;1.70;1.20;;;7.80;98.20;;;;;;4997499;28;20465;-72
2022/01/09 12:45:59;;;;;;;1.67;1.20;;;7.90;98.20;;;;;;4983986;28;20844;-73
2022/01/09 12:48:28;;;;;;;1.63;1.30;;;7.90;98.20;;;;;;4985226;28;20483;-74
2022/01/09 12:50:57;;;;;;;1.70;1.57;;;7.90;98.20;;;;;;4976241;28;20555;-77
2022/01/09 12:53:26;;;;;;;1.70;1.30;;;7.90;98.20;;;;;;4997334;28;20485;-77
2022/01/09 12:55:55;;;;;;;1.70;1.30;;;7.90;98.20;;;;;;4974196;28;20467;-73
2022/01/09 12:58:27;;;;;;;1.70;1.30;;;7.90;98.20;;;;;;4998480;28;20500;-79
2022/01/09 13:00:54;;;;;;;1.60;1.20;;;8.00;98.20;;;;;;4979170;28;20983;-71
2022/01/09 13:03:23;;;;;;;1.63;1.20;;;8.20;98.20;;;;;;4997744;28;20464;-72
2022/01/09 13:05:54;;;;;;;1.60;1.30;;;8.20;98.20;;;;;;4973287;28;20468;-73
2022/01/09 13:08:21;;;;;;;1.60;1.20;;;8.30;98.20;;;;;;4997153;28;20497;-74